Time;durP1;ratioP1;P1;durP2;ratioP2;P2;SDS_P1;SDS_P2;PMS_P1;PMS_P2;Temp;Humidity;BMP_temperature;BMP_pressure;BME280_temperature;BME280_humidity;BME280_pressure;Samples;Min_cycle;Max_cycle;Signal;HPM_P1;HPM_P2
2022/03/12 00:00:26;;;;;;;9.00;6.23;;;;;;;5.16;36.15;100252.47;5053234;28;20334;-58
2022/03/12 00:02:51;;;;;;;7.70;6.60;;;;;;;5.22;35.96;100248.06;5059080;28;20188;-59
2022/03/12 00:05:18;;;;;;;9.87;6.10;;;;;;;5.22;35.95;100253.16;5072729;28;20583;-63
2022/03/12 00:07:44;;;;;;;9.67;6.07;;;;;;;5.13;36.11;100257.66;5072172;28;20177;-58
2022/03/12 00:10:13;;;;;;;8.30;6.57;;;;;;;5.09;35.99;100257.81;5063369;28;20226;-58
2022/03/12 00:12:40;;;;;;;7.97;6.10;;;;;;;5.10;36.23;100262.03;5072443;28;20561;-60
2022/03/12 00:15:09;;;;;;;8.50;6.23;;;;;;;5.12;36.28;100256.00;5062776;28;20191;-61
2022/03/12 00:17:41;;;;;;;7.00;6.30;;;;;;;5.07;36.12;100259.56;5087490;28;20270;-60
2022/03/12 00:20:12;;;;;;;9.10;7.63;;;;;;;5.04;36.36;100262.22;5062516;28;20184;-60
2022/03/12 00:22:39;;;;;;;9.77;6.43;;;;;;;5.03;36.30;100263.91;5072453;28;20177;-59
2022/03/12 00:25:07;;;;;;;7.57;5.97;;;;;;;4.98;35.95;100263.19;5072284;28;20174;-58
2022/03/12 00:27:32;;;;;;;8.47;6.33;;;;;;;4.95;36.32;100260.72;5071378;28;20177;-59
2022/03/12 00:29:59;;;;;;;8.90;5.90;;;;;;;4.90;36.35;100268.53;5071806;28;20222;-60
2022/03/12 00:32:24;;;;;;;8.67;6.93;;;;;;;4.87;36.29;100262.69;5041941;28;20224;-58
2022/03/12 00:34:49;;;;;;;10.93;6.43;;;;;;;4.93;36.69;100260.78;5073538;28;20658;-58
2022/03/12 00:37:14;;;;;;;9.73;6.17;;;;;;;4.96;35.89;100267.50;5073037;28;20177;-60
2022/03/12 00:39:41;;;;;;;8.43;5.97;;;;;;;4.89;36.22;100268.56;5072886;28;20177;-59
2022/03/12 00:42:07;;;;;;;9.43;7.03;;;;;;;4.85;36.76;100271.19;5061733;28;20628;-59
2022/03/12 00:44:32;;;;;;;7.47;5.97;;;;;;;4.88;36.56;100280.47;5071722;28;20168;-58
2022/03/12 00:46:57;;;;;;;11.70;6.73;;;;;;;4.82;36.52;100270.44;5072919;28;20221;-58
2022/03/12 00:49:23;;;;;;;6.27;5.00;;;;;;;4.80;36.20;100277.28;5072528;28;20169;-58
2022/03/12 00:51:49;;;;;;;9.87;6.77;;;;;;;4.85;36.20;100266.09;5049801;28;20326;-59
2022/03/12 00:54:14;;;;;;;7.67;6.20;;;;;;;4.84;36.23;100276.34;5054593;28;20260;-59
2022/03/12 00:56:39;;;;;;;7.87;6.33;;;;;;;4.87;35.62;100283.06;5052667;28;20232;-59
2022/03/12 00:59:05;;;;;;;7.57;5.80;;;;;;;4.87;35.78;100283.06;5052450;28;20651;-58
2022/03/12 01:01:31;;;;;;;7.50;5.97;;;;;;;5.01;35.83;100291.16;5053276;28;20232;-59
2022/03/12 01:03:57;;;;;;;9.93;6.17;;;;;;;5.11;35.79;100286.63;5067309;28;20220;-58
2022/03/12 01:06:23;;;;;;;7.73;6.30;;;;;;;4.94;35.70;100282.84;5072845;28;20247;-58
2022/03/12 01:08:48;;;;;;;9.33;6.20;;;;;;;4.87;36.03;100280.53;5072288;28;20173;-58
2022/03/12 01:11:14;;;;;;;6.87;5.60;;;;;;;4.81;36.26;100284.06;5071964;28;20312;-59
2022/03/12 01:13:40;;;;;;;14.03;6.00;;;;;;;4.79;36.12;100279.00;5078692;28;20690;-59
2022/03/12 01:16:06;;;;;;;9.67;5.70;;;;;;;4.79;36.10;100281.56;5070997;28;20173;-59
2022/03/12 01:18:36;;;;;;;13.03;6.43;;;;;;;4.82;36.08;100280.66;5070717;28;20184;-59
2022/03/12 01:21:16;;;;;;;8.03;6.20;;;;;;;4.77;36.24;100275.66;5059390;28;20232;-58
2022/03/12 01:23:42;;;;;;;6.73;6.03;;;;;;;4.92;36.27;100273.56;5071027;28;20168;-58
2022/03/12 01:26:10;;;;;;;9.13;5.73;;;;;;;4.76;36.17;100275.72;5072271;28;20276;-58
2022/03/12 01:28:35;;;;;;;7.40;6.30;;;;;;;4.61;36.50;100271.88;5087171;28;20173;-59
2022/03/12 01:31:01;;;;;;;8.37;6.07;;;;;;;4.76;36.45;100280.81;5069818;28;20224;-59
2022/03/12 01:33:26;;;;;;;7.17;5.30;;;;;;;4.66;36.39;100270.88;5070669;28;20352;-58
2022/03/12 01:35:52;;;;;;;8.87;6.27;;;;;;;4.62;36.47;100276.09;5072261;28;20629;-58
2022/03/12 01:38:17;;;;;;;7.63;5.80;;;;;;;4.50;36.41;100275.56;5070131;28;20185;-58
2022/03/12 01:40:43;;;;;;;7.23;5.90;;;;;;;4.49;36.47;100276.44;5057911;28;20235;-58
2022/03/12 01:43:08;;;;;;;10.47;5.97;;;;;;;4.63;36.33;100280.31;5070925;28;20181;-59
2022/03/12 01:45:35;;;;;;;7.13;6.03;;;;;;;4.44;36.44;100273.16;5071614;28;20644;-59
2022/03/12 01:48:03;;;;;;;7.50;5.97;;;;;;;4.32;36.61;100276.84;5071587;28;20172;-59
2022/03/12 01:50:34;;;;;;;6.50;5.63;;;;;;;4.45;36.28;100279.09;5064888;28;20224;-59
2022/03/12 01:53:03;;;;;;;8.30;6.33;;;;;;;4.48;36.49;100284.13;5058219;28;20260;-59
2022/03/12 01:55:30;;;;;;;8.03;6.33;;;;;;;4.53;36.22;100292.47;5070178;28;20216;-59
2022/03/12 01:57:57;;;;;;;8.73;6.43;;;;;;;4.44;36.19;100280.81;5069808;28;20224;-59
2022/03/12 02:00:26;;;;;;;5.80;5.13;;;;;;;4.44;36.19;100282.50;5057992;28;20226;-58
2022/03/12 02:02:54;;;;;;;9.23;5.37;;;;;;;4.41;36.41;100285.16;5070478;28;20283;-59
2022/03/12 02:05:23;;;;;;;9.00;6.10;;;;;;;4.39;36.19;100282.66;5070230;28;20181;-57
2022/03/12 02:07:48;;;;;;;7.10;5.90;;;;;;;4.37;36.28;100289.47;5071220;28;20176;-58
2022/03/12 02:10:18;;;;;;;8.77;6.47;;;;;;;4.30;36.70;100280.31;5062840;28;20184;-58
2022/03/12 02:12:43;;;;;;;8.33;5.73;;;;;;;4.26;36.40;100283.84;5085135;28;20515;-58
2022/03/12 02:15:09;;;;;;;7.70;5.83;;;;;;;4.20;36.52;100284.81;5071560;28;20168;-58
2022/03/12 02:17:37;;;;;;;10.60;5.67;;;;;;;4.19;36.58;100281.44;5086497;28;20212;-58
2022/03/12 02:20:03;;;;;;;8.43;5.30;;;;;;;4.14;36.63;100287.50;5066491;28;20176;-58
2022/03/12 02:22:29;;;;;;;8.80;6.07;;;;;;;4.12;36.61;100287.56;5067250;28;20207;-58
2022/03/12 02:24:54;;;;;;;7.40;5.63;;;;;;;4.11;36.73;100287.59;5071297;28;20587;-57
2022/03/12 02:27:20;;;;;;;7.03;5.20;;;;;;;4.09;36.65;100287.63;5070788;28;20183;-60
2022/03/12 02:29:46;;;;;;;11.10;5.80;;;;;;;4.14;36.41;100290.06;5070261;28;20199;-60
2022/03/12 02:32:12;;;;;;;6.10;5.37;;;;;;;4.19;36.77;100290.78;5077034;28;20694;-59
2022/03/12 02:34:51;;;;;;;10.40;5.57;;;;;;;4.23;36.56;100291.53;5070023;28;20227;-58
2022/03/12 02:37:28;;;;;;;7.30;5.97;;;;;;;4.10;36.70;100293.56;5068929;28;20664;-63
2022/03/12 02:39:53;;;;;;;9.57;5.13;;;;;;;4.20;36.32;100290.75;5070246;28;20619;-59
2022/03/12 02:42:19;;;;;;;6.77;5.17;;;;;;;4.12;36.63;100297.75;5059902;28;20234;-58
2022/03/12 02:44:44;;;;;;;10.33;6.03;;;;;;;4.30;36.52;100300.69;5071392;28;20165;-58
2022/03/12 02:47:11;;;;;;;6.53;5.70;;;;;;;4.28;36.28;100307.53;5071201;28;20176;-64
2022/03/12 02:49:39;;;;;;;8.30;6.40;;;;;;;4.32;36.16;100309.16;5069158;28;20181;-60
2022/03/12 02:52:05;;;;;;;5.67;5.03;;;;;;;4.11;36.39;100313.88;5049685;28;20265;-58
2022/03/12 02:54:31;;;;;;;11.40;6.17;;;;;;;4.10;36.38;100311.38;5066620;28;20253;-61
2022/03/12 02:56:56;;;;;;;7.77;5.77;;;;;;;4.17;36.38;100307.81;5061963;28;20232;-60
2022/03/12 02:59:22;;;;;;;6.93;5.60;;;;;;;4.13;36.53;100313.84;5074535;28;20269;-59
2022/03/12 03:01:48;;;;;;;9.33;5.30;;;;;;;4.09;36.67;100313.06;5078513;28;20256;-59
2022/03/12 03:04:13;;;;;;;8.53;6.00;;;;;;;4.10;36.39;100313.94;5073749;28;20178;-58
2022/03/12 03:06:38;;;;;;;9.30;6.23;;;;;;;4.10;36.56;100309.66;5074916;28;20248;-58
2022/03/12 03:09:04;;;;;;;12.73;5.53;;;;;;;4.17;36.73;100315.47;5074451;28;20668;-59
2022/03/12 03:11:39;;;;;;;9.10;5.97;;;;;;;4.06;36.58;100323.34;5083479;28;20231;-58
2022/03/12 03:14:12;;;;;;;10.17;5.90;;;;;;;4.12;36.42;100327.44;5073510;28;20204;-59
2022/03/12 03:16:39;;;;;;;6.20;5.23;;;;;;;4.06;36.28;100322.50;5074724;28;20180;-58
2022/03/12 03:19:04;;;;;;;8.37;5.53;;;;;;;4.07;36.28;100325.03;5072830;28;20237;-58
2022/03/12 03:21:30;;;;;;;8.50;5.03;;;;;;;3.91;36.34;100327.09;5075871;28;20693;-57
2022/03/12 03:23:56;;;;;;;6.90;5.47;;;;;;;3.79;36.72;100328.19;5073385;28;20197;-58
2022/03/12 03:26:33;;;;;;;6.70;5.50;;;;;;;3.77;36.84;100332.50;5074714;28;20276;-59
2022/03/12 03:28:58;;;;;;;9.20;6.30;;;;;;;3.81;36.93;100340.91;5074039;28;20195;-59
2022/03/12 03:31:24;;;;;;;8.70;5.27;;;;;;;3.88;36.74;100345.81;5074972;28;20597;-57
2022/03/12 03:33:50;;;;;;;7.10;5.90;;;;;;;3.80;36.63;100344.31;5079102;28;20207;-58
2022/03/12 03:36:15;;;;;;;10.23;6.13;;;;;;;3.74;36.75;100352.09;5074523;28;20179;-58
2022/03/12 03:38:40;;;;;;;7.90;5.33;;;;;;;3.67;37.11;100348.81;5073999;28;20210;-58
2022/03/12 03:41:06;;;;;;;6.87;5.13;;;;;;;3.57;37.59;100344.81;5063848;28;20247;-59
2022/03/12 03:43:31;;;;;;;7.90;5.57;;;;;;;3.64;37.20;100347.19;5073409;28;20210;-58
2022/03/12 03:45:57;;;;;;;9.10;5.80;;;;;;;3.54;37.71;100353.34;5074196;28;20180;-61
2022/03/12 03:48:24;;;;;;;8.53;5.43;;;;;;;3.43;37.18;100356.13;5073833;28;20528;-58
2022/03/12 03:50:51;;;;;;;7.77;5.67;;;;;;;3.36;37.53;100357.09;5059359;28;20226;-59
2022/03/12 03:53:18;;;;;;;6.67;5.13;;;;;;;3.41;37.72;100354.47;5062915;28;20326;-66
2022/03/12 03:55:44;;;;;;;6.93;5.77;;;;;;;3.36;37.57;100352.03;5071604;28;20190;-58
2022/03/12 03:58:12;;;;;;;7.07;5.73;;;;;;;3.33;37.45;100362.28;5073414;28;20224;-57
2022/03/12 04:00:38;;;;;;;7.97;5.70;;;;;;;3.18;37.79;100360.88;5050384;28;20225;-59
2022/03/12 04:03:04;;;;;;;7.77;6.30;;;;;;;3.28;38.02;100369.97;5073190;28;20179;-58
2022/03/12 04:05:38;;;;;;;7.03;5.60;;;;;;;3.26;37.49;100371.72;5072412;28;20566;-58
2022/03/12 04:08:06;;;;;;;8.20;5.67;;;;;;;3.41;37.81;100373.09;5071721;28;20299;-58
2022/03/12 04:10:33;;;;;;;6.30;5.17;;;;;;;3.41;37.38;100380.72;5065597;28;20236;-61
2022/03/12 04:12:59;;;;;;;7.07;5.47;;;;;;;3.31;37.62;100391.97;5072399;28;20203;-58
2022/03/12 04:15:25;;;;;;;6.40;5.60;;;;;;;3.21;37.82;100386.22;5064556;28;20237;-58
2022/03/12 04:17:51;;;;;;;7.93;5.30;;;;;;;3.38;37.77;100394.34;5072073;28;20172;-58
2022/03/12 04:20:21;;;;;;;6.63;5.90;;;;;;;3.27;37.92;100398.00;5064093;28;20637;-59
2022/03/12 04:22:51;;;;;;;8.50;5.10;;;;;;;3.25;37.60;100392.09;5072381;28;20269;-59
2022/03/12 04:25:17;;;;;;;10.53;5.40;;;;;;;3.38;37.94;100396.88;5071368;28;20653;-63
2022/03/12 04:27:44;;;;;;;8.60;4.53;;;;;;;3.28;38.32;100395.41;5060348;28;20191;-59
2022/03/12 04:30:11;;;;;;;7.30;6.20;;;;;;;3.25;37.99;100403.09;5058630;28;20176;-59
2022/03/12 04:32:38;;;;;;;8.13;5.43;;;;;;;3.20;38.21;100409.97;5072403;28;20784;-58
2022/03/12 04:35:05;;;;;;;7.27;5.80;;;;;;;3.04;38.96;100400.09;5072195;28;20638;-59
2022/03/12 04:37:31;;;;;;;8.97;5.50;;;;;;;3.02;39.10;100406.91;5069166;28;20189;-59
2022/03/12 04:39:56;;;;;;;9.27;5.60;;;;;;;3.01;38.85;100409.47;5053104;28;20186;-58
2022/03/12 04:42:22;;;;;;;7.73;5.17;;;;;;;2.91;38.52;100406.25;5057585;28;20239;-58
2022/03/12 04:44:48;;;;;;;6.93;5.40;;;;;;;2.96;38.72;100404.47;5052858;28;20227;-58
2022/03/12 04:47:17;;;;;;;9.53;5.63;;;;;;;2.83;38.95;100408.09;5051297;28;20209;-58
2022/03/12 04:49:42;;;;;;;10.93;5.40;;;;;;;2.96;39.04;100403.66;5051086;28;20175;-58
2022/03/12 04:52:10;;;;;;;6.53;5.27;;;;;;;2.88;38.52;100401.25;5070609;28;20721;-58
2022/03/12 04:54:35;;;;;;;7.33;4.93;;;;;;;2.86;38.54;100408.06;5069545;28;20192;-58
2022/03/12 04:57:01;;;;;;;7.30;5.90;;;;;;;2.87;38.98;100402.94;5068495;28;20473;-58
2022/03/12 04:59:27;;;;;;;8.93;5.40;;;;;;;2.99;38.61;100399.34;5070559;28;20193;-58
2022/03/12 05:01:52;;;;;;;8.70;5.20;;;;;;;2.92;38.83;100396.97;5055253;28;20229;-58
2022/03/12 05:04:17;;;;;;;7.93;5.70;;;;;;;2.79;39.26;100401.41;5056170;28;20228;-58
2022/03/12 05:06:43;;;;;;;8.33;5.97;;;;;;;2.88;39.10;100414.78;5052175;28;20186;-59
2022/03/12 05:09:08;;;;;;;5.37;4.83;;;;;;;2.78;38.91;100408.19;5051709;28;20188;-58
2022/03/12 05:11:34;;;;;;;7.53;5.17;;;;;;;2.67;38.98;100413.44;5063526;28;20350;-57
2022/03/12 05:13:59;;;;;;;6.67;5.27;;;;;;;2.66;38.96;100413.47;5072962;28;20205;-58
2022/03/12 05:16:28;;;;;;;8.33;5.93;;;;;;;2.59;39.09;100415.28;5057590;28;20527;-57
2022/03/12 05:18:54;;;;;;;10.53;5.83;;;;;;;2.64;39.22;100412.66;5049687;28;20274;-59
2022/03/12 05:21:20;;;;;;;8.13;5.50;;;;;;;2.58;39.02;100419.53;5044988;28;20854;-58
2022/03/12 05:23:45;;;;;;;11.53;5.43;;;;;;;2.61;38.97;100421.16;5067173;28;20718;-58
2022/03/12 05:26:10;;;;;;;6.43;5.67;;;;;;;2.66;39.21;100416.03;5052127;28;20173;-58
2022/03/12 05:28:39;;;;;;;6.80;5.07;;;;;;;2.66;39.05;100428.72;5051922;28;20232;-57
2022/03/12 05:31:05;;;;;;;6.73;4.93;;;;;;;2.58;39.31;100428.84;5043705;28;20221;-57
2022/03/12 05:33:30;;;;;;;10.65;5.55;;;;;;;2.63;39.09;100416.06;5058916;28;20477;-57
2022/03/12 05:35:57;;;;;;;10.33;5.40;;;;;;;2.60;39.37;100423.75;5050895;28;20193;-57
2022/03/12 05:38:24;;;;;;;11.20;5.90;;;;;;;2.62;39.59;100422.84;5052094;28;20586;-57
2022/03/12 05:40:50;;;;;;;6.20;5.03;;;;;;;2.64;39.18;100425.34;5057049;28;20279;-57
2022/03/12 05:43:17;;;;;;;8.50;6.30;;;;;;;2.66;39.41;100429.53;5071056;28;20189;-60
2022/03/12 05:45:48;;;;;;;8.57;5.33;;;;;;;2.55;39.44;100428.88;5070758;28;20192;-58
2022/03/12 05:48:15;;;;;;;7.03;5.10;;;;;;;2.50;39.48;100434.03;5071665;28;20226;-60
2022/03/12 05:50:43;;;;;;;8.47;6.43;;;;;;;2.68;39.52;100437.13;5062084;28;20229;-57
2022/03/12 05:53:09;;;;;;;7.00;5.90;;;;;;;2.64;38.89;100433.84;5065387;28;20209;-59
2022/03/12 05:55:39;;;;;;;8.63;5.43;;;;;;;2.71;39.53;100434.56;5070438;28;20253;-58
2022/03/12 05:58:06;;;;;;;13.00;5.60;;;;;;;2.67;39.44;100427.88;5071326;28;20311;-58
2022/03/12 06:00:32;;;;;;;6.70;5.23;;;;;;;2.73;39.09;100428.59;5063676;28;20220;-58
2022/03/12 06:02:59;;;;;;;10.93;5.97;;;;;;;2.72;39.25;100434.53;5070450;28;20610;-59
2022/03/12 06:05:25;;;;;;;7.03;5.67;;;;;;;2.66;39.59;100427.00;5070176;28;20177;-58
2022/03/12 06:07:52;;;;;;;8.63;6.20;;;;;;;2.64;39.49;100433.84;5071016;28;20174;-58
2022/03/12 06:10:21;;;;;;;8.47;5.40;;;;;;;2.69;39.38;100433.75;5060158;28;20169;-59
2022/03/12 06:12:48;;;;;;;7.93;5.63;;;;;;;2.85;39.25;100444.47;5070350;28;20723;-58
2022/03/12 06:15:17;;;;;;;8.37;6.03;;;;;;;2.93;38.90;100445.19;5070263;28;20216;-59
2022/03/12 06:17:44;;;;;;;7.13;5.37;;;;;;;2.91;38.85;100446.91;5069798;28;20209;-57
2022/03/12 06:20:10;;;;;;;10.17;5.40;;;;;;;2.86;38.82;100447.00;5059857;28;20174;-58
2022/03/12 06:22:37;;;;;;;8.93;6.07;;;;;;;2.91;38.93;100452.00;5054674;28;20175;-57
2022/03/12 06:25:04;;;;;;;7.20;5.47;;;;;;;2.99;38.77;100444.25;5071390;28;20201;-57
2022/03/12 06:27:29;;;;;;;10.77;5.53;;;;;;;3.04;38.47;100445.84;5069413;28;20182;-58
2022/03/12 06:29:56;;;;;;;7.37;5.67;;;;;;;3.22;38.52;100447.22;5071571;28;20189;-58
2022/03/12 06:32:22;;;;;;;6.80;5.40;;;;;;;3.36;37.75;100454.59;5059847;28;20285;-58
2022/03/12 06:34:47;;;;;;;10.67;6.00;;;;;;;3.39;37.15;100451.97;5069978;28;20179;-58
2022/03/12 06:37:12;;;;;;;7.17;5.20;;;;;;;3.46;37.87;100449.31;5071525;28;20185;-59
2022/03/12 06:39:38;;;;;;;7.90;5.53;;;;;;;3.71;37.24;100453.06;5070758;28;20651;-57
2022/03/12 06:42:04;;;;;;;7.70;5.60;;;;;;;3.94;37.14;100454.25;5076803;28;20529;-60
2022/03/12 06:44:32;;;;;;;7.83;5.93;;;;;;;4.17;36.31;100455.50;5069819;28;20199;-59
2022/03/12 06:47:04;;;;;;;8.43;5.53;;;;;;;4.38;36.01;100458.41;5070506;28;20173;-59
2022/03/12 06:49:29;;;;;;;8.90;5.63;;;;;;;4.71;34.97;100463.59;5070413;28;20773;-59
2022/03/12 06:51:55;;;;;;;7.90;6.13;;;;;;;4.82;34.87;100459.06;5071512;28;20253;-58
2022/03/12 06:54:22;;;;;;;8.77;5.50;;;;;;;5.31;34.24;100455.25;5068983;28;20245;-57
2022/03/12 06:56:47;;;;;;;6.63;5.67;;;;;;;5.27;33.98;100455.34;5071127;28;20249;-58
2022/03/12 06:59:13;;;;;;;7.63;5.40;;;;;;;5.14;34.14;100457.41;5070783;28;20253;-58
2022/03/12 07:01:39;;;;;;;7.00;5.30;;;;;;;5.36;33.98;100454.28;5062787;28;20235;-60
2022/03/12 07:04:06;;;;;;;10.07;5.73;;;;;;;5.86;33.28;100454.56;5074085;28;20621;-58
2022/03/12 07:06:33;;;;;;;9.10;5.40;;;;;;;6.28;32.84;100448.25;5069868;28;20246;-59
2022/03/12 07:08:59;;;;;;;8.90;5.60;;;;;;;5.82;33.27;100453.00;5053065;28;20185;-60
2022/03/12 07:11:24;;;;;;;8.00;5.87;;;;;;;5.21;33.73;100448.72;5060114;28;20767;-60
2022/03/12 07:13:49;;;;;;;7.73;6.03;;;;;;;5.03;34.63;100452.56;5070700;28;20211;-58
2022/03/12 07:16:14;;;;;;;8.63;6.03;;;;;;;4.89;34.50;100452.94;5069226;28;20185;-58
2022/03/12 07:18:40;;;;;;;8.13;5.63;;;;;;;4.69;35.12;100464.47;5049947;28;20178;-59
2022/03/12 07:21:06;;;;;;;11.40;6.77;;;;;;;4.46;35.68;100466.72;5048247;28;20314;-61
2022/03/12 07:23:31;;;;;;;12.37;6.13;;;;;;;4.29;35.53;100456.91;5062373;28;20201;-58
2022/03/12 07:25:57;;;;;;;9.27;5.73;;;;;;;4.11;35.87;100461.53;5058914;28;20192;-58
2022/03/12 07:28:22;;;;;;;7.33;5.90;;;;;;;4.32;36.14;100461.94;5050646;28;20174;-59
2022/03/12 07:30:48;;;;;;;6.73;5.20;;;;;;;4.30;35.81;100467.06;5045841;28;20217;-58
2022/03/12 07:33:13;;;;;;;9.00;6.77;;;;;;;4.20;35.69;100473.25;5059422;28;20196;-60
2022/03/12 07:35:39;;;;;;;7.90;5.40;;;;;;;4.32;35.93;100472.97;5050276;28;20196;-59
2022/03/12 07:38:04;;;;;;;8.80;6.57;;;;;;;4.48;35.81;100468.34;5049689;28;20189;-59
2022/03/12 07:40:30;;;;;;;8.17;6.37;;;;;;;4.53;36.18;100474.19;5044497;28;20224;-59
2022/03/12 07:42:55;;;;;;;7.40;6.07;;;;;;;4.63;35.63;100461.22;5071222;28;20211;-60
2022/03/12 07:45:21;;;;;;;7.50;6.33;;;;;;;4.69;35.64;100456.81;5059265;28;20227;-58
2022/03/12 07:47:47;;;;;;;7.87;6.47;;;;;;;4.77;35.65;100454.06;5056570;28;20165;-58
2022/03/12 07:50:13;;;;;;;8.57;6.10;;;;;;;4.86;35.51;100458.09;5043946;28;21508;-58
2022/03/12 07:52:39;;;;;;;7.87;5.80;;;;;;;4.97;35.35;100470.59;5077174;28;20685;-60
2022/03/12 07:55:06;;;;;;;9.00;6.03;;;;;;;5.24;34.72;100471.59;5046476;28;20189;-59
2022/03/12 07:57:32;;;;;;;9.57;6.33;;;;;;;5.33;34.52;100471.34;5061514;28;20847;-58
2022/03/12 08:00:00;;;;;;;25.47;6.83;;;;;;;5.37;34.58;100472.09;5053526;28;20200;-58
2022/03/12 08:02:26;;;;;;;10.23;6.63;;;;;;;5.32;34.60;100476.47;5051519;28;20232;-59
2022/03/12 08:04:51;;;;;;;8.73;5.73;;;;;;;5.58;35.28;100482.59;5061866;28;20177;-58
2022/03/12 08:07:17;;;;;;;10.53;6.03;;;;;;;5.94;34.35;100484.97;5053068;28;20185;-59
2022/03/12 08:09:42;;;;;;;9.87;6.10;;;;;;;6.10;33.81;100493.06;5053534;28;20232;-60
2022/03/12 08:12:08;;;;;;;8.07;6.10;;;;;;;5.85;33.88;100490.34;5058742;28;20230;-60
2022/03/12 08:14:34;;;;;;;10.20;6.33;;;;;;;5.50;34.52;100493.00;5053615;28;20175;-59
2022/03/12 08:16:59;;;;;;;9.23;6.27;;;;;;;5.31;34.54;100495.22;5058017;28;20241;-59
2022/03/12 08:19:25;;;;;;;8.33;6.20;;;;;;;5.06;35.10;100492.47;5053351;28;20169;-59
2022/03/12 08:21:52;;;;;;;8.03;6.07;;;;;;;5.09;35.19;100495.78;5057218;28;20226;-60
2022/03/12 08:24:18;;;;;;;11.70;6.57;;;;;;;5.29;35.36;100500.34;5052252;28;20278;-57
2022/03/12 08:26:45;;;;;;;8.23;6.03;;;;;;;5.30;35.16;100496.94;5057457;28;20200;-60
2022/03/12 08:29:14;;;;;;;8.00;6.43;;;;;;;5.58;34.81;100483.44;5051297;28;20669;-60
2022/03/12 08:31:40;;;;;;;11.27;6.77;;;;;;;5.92;34.27;100484.19;5025847;28;20221;-59
2022/03/12 08:34:10;;;;;;;9.27;6.77;;;;;;;6.32;34.21;100488.13;5065410;28;20262;-58
2022/03/12 08:36:35;;;;;;;9.10;6.60;;;;;;;6.48;33.57;100485.94;5057083;28;20627;-58
2022/03/12 08:39:01;;;;;;;7.87;6.27;;;;;;;6.48;32.99;100493.63;5055499;28;20181;-59
2022/03/12 08:41:27;;;;;;;8.60;6.50;;;;;;;6.68;33.36;100497.28;5052850;28;20222;-59
2022/03/12 08:43:53;;;;;;;7.97;5.77;;;;;;;7.08;32.86;100493.38;5069359;28;20195;-60
2022/03/12 08:46:19;;;;;;;6.77;5.93;;;;;;;7.24;32.60;100497.13;5057822;28;20496;-61
2022/03/12 08:48:44;;;;;;;12.60;6.90;;;;;;;7.38;32.33;100488.97;5054583;28;20192;-61
2022/03/12 08:51:10;;;;;;;6.70;5.73;;;;;;;7.18;32.03;100494.78;5051191;28;20361;-58
2022/03/12 08:53:36;;;;;;;7.77;6.50;;;;;;;6.68;32.76;100504.94;5071312;28;20196;-59
2022/03/12 08:56:03;;;;;;;8.27;6.20;;;;;;;6.43;33.32;100498.03;5055584;28;20187;-58
2022/03/12 08:58:29;;;;;;;9.80;6.70;;;;;;;6.45;33.34;100496.28;5059866;28;20252;-58
2022/03/12 09:00:55;;;;;;;9.97;6.30;;;;;;;6.73;33.41;100498.78;5050925;28;20943;-59
2022/03/12 09:03:21;;;;;;;7.73;5.70;;;;;;;6.60;33.29;100495.78;5066409;28;20187;-59
2022/03/12 09:05:50;;;;;;;10.80;6.70;;;;;;;6.68;33.23;100499.81;5056768;28;20183;-58
2022/03/12 09:08:17;;;;;;;8.33;6.30;;;;;;;7.03;32.93;100506.34;5053431;28;20192;-59
2022/03/12 09:10:43;;;;;;;8.20;6.73;;;;;;;7.15;32.48;100502.53;5049321;28;20235;-58
2022/03/12 09:13:13;;;;;;;9.03;6.23;;;;;;;7.37;32.01;100489.84;5061490;28;21057;-59
2022/03/12 09:15:40;;;;;;;9.03;6.17;;;;;;;7.79;31.82;100483.25;5054259;28;20192;-58
2022/03/12 09:18:05;;;;;;;8.70;6.43;;;;;;;8.01;31.37;100487.56;5050764;28;20291;-59
2022/03/12 09:20:31;;;;;;;8.50;6.50;;;;;;;8.01;31.65;100480.72;5043725;28;20328;-60
2022/03/12 09:22:56;;;;;;;7.83;6.33;;;;;;;8.32;31.57;100491.50;5064128;28;20188;-55
2022/03/12 09:25:22;;;;;;;7.73;6.37;;;;;;;8.76;30.70;100490.66;5052214;28;20228;-55
2022/03/12 09:27:48;;;;;;;8.07;6.70;;;;;;;8.72;30.97;100495.09;5051722;28;20170;-55
2022/03/12 09:30:14;;;;;;;11.57;7.45;;;;;;;9.04;30.58;100493.78;5043616;28;20410;-55
2022/03/12 09:32:41;;;;;;;9.20;7.50;;;;;;;9.31;29.84;100496.06;5065233;28;20475;-58
2022/03/12 09:35:07;;;;;;;11.33;7.10;;;;;;;9.51;29.51;100495.22;5051932;28;20189;-58
2022/03/12 09:37:32;;;;;;;9.95;8.00;;;;;;;10.28;28.12;100493.47;5060491;28;20418;-59
2022/03/12 09:40:00;;;;;;;9.07;6.40;;;;;;;11.06;27.91;100487.19;5070730;28;20642;-59
2022/03/12 09:42:30;;;;;;;10.03;7.77;;;;;;;11.59;26.68;100487.91;5059444;28;20261;-59
2022/03/12 09:44:56;;;;;;;7.57;6.77;;;;;;;11.75;26.25;100477.63;5070400;28;20230;-58
2022/03/12 09:47:21;;;;;;;9.07;7.50;;;;;;;12.13;25.63;100477.34;5085551;28;20177;-59
2022/03/12 09:49:47;;;;;;;12.17;6.87;;;;;;;11.83;25.97;100480.59;5070325;28;20582;-60
2022/03/12 09:52:12;;;;;;;13.90;7.10;;;;;;;11.92;26.24;100476.69;5059085;28;20228;-57
2022/03/12 09:54:37;;;;;;;7.80;6.90;;;;;;;12.17;26.00;100477.97;5051866;28;20188;-58
2022/03/12 09:57:03;;;;;;;9.27;6.23;;;;;;;11.12;27.00;100481.72;5051912;28;20248;-57
2022/03/12 09:59:28;;;;;;;8.37;7.40;;;;;;;10.83;27.57;100484.03;5069580;28;20181;-58
2022/03/12 10:01:55;;;;;;;8.00;6.67;;;;;;;10.76;27.51;100477.50;5060677;28;20236;-57
2022/03/12 10:04:20;;;;;;;7.53;6.83;;;;;;;10.97;27.50;100473.84;5071787;28;20173;-58
2022/03/12 10:06:47;;;;;;;8.30;7.17;;;;;;;11.31;27.28;100479.03;5070283;28;20276;-57
2022/03/12 10:09:13;;;;;;;7.57;6.77;;;;;;;11.75;26.66;100478.44;5071338;28;20176;-58
2022/03/12 10:11:41;;;;;;;7.73;6.60;;;;;;;12.00;26.53;100482.31;5060436;28;20274;-58
2022/03/12 10:14:07;;;;;;;10.17;6.93;;;;;;;12.90;25.47;100469.56;5067344;28;20200;-58
2022/03/12 10:16:33;;;;;;;9.13;6.80;;;;;;;13.19;25.49;100472.19;5071603;28;20173;-57
2022/03/12 10:18:59;;;;;;;9.83;7.20;;;;;;;13.30;25.21;100479.31;5071210;28;20203;-58
2022/03/12 10:21:25;;;;;;;11.87;7.60;;;;;;;12.94;25.56;100475.38;5060230;28;20240;-57
2022/03/12 10:23:50;;;;;;;7.90;7.10;;;;;;;13.11;25.23;100467.47;5071041;28;20177;-60
2022/03/12 10:26:16;;;;;;;15.00;9.33;;;;;;;12.50;25.94;100475.28;5071865;28;20261;-58
2022/03/12 10:28:41;;;;;;;9.70;7.03;;;;;;;12.98;25.98;100466.53;5070005;28;20234;-59
2022/03/12 10:41:12;;;;;;;8.17;7.10;;;;;;;11.58;29.42;100463.88;5049349;28;20243;-70
2022/03/12 10:43:51;;;;;;;8.90;7.47;;;;;;;11.52;28.59;100458.22;5065284;28;20529;-66
2022/03/12 10:46:27;;;;;;;12.27;7.30;;;;;;;11.09;29.27;100463.88;5070170;28;20169;-68
2022/03/12 10:48:56;;;;;;;11.60;8.07;;;;;;;10.82;29.87;100457.44;5070945;28;20194;-67
2022/03/12 10:51:26;;;;;;;8.70;7.80;;;;;;;10.43;30.06;100455.94;5060538;28;20721;-67
2022/03/12 10:53:59;;;;;;;9.37;7.80;;;;;;;10.91;29.78;100451.00;5050987;28;20209;-69
2022/03/12 10:56:48;;;;;;;11.63;7.77;;;;;;;11.04;29.66;100448.66;5063952;28;20180;-69
2022/03/12 10:59:16;;;;;;;12.93;7.50;;;;;;;11.20;30.62;100442.69;5070739;28;20546;-67
2022/03/12 11:01:47;;;;;;;9.63;7.97;;;;;;;11.14;29.86;100446.44;5060088;28;20268;-67
2022/03/12 11:04:24;;;;;;;10.40;8.18;;;;;;;11.21;30.24;100446.94;5070054;28;20413;-69
2022/03/12 11:06:51;;;;;;;12.97;8.17;;;;;;;11.43;29.31;100450.06;5071298;28;20624;-69
2022/03/12 11:09:30;;;;;;;11.83;7.97;;;;;;;11.30;30.07;100454.22;5068992;28;20584;-68
2022/03/12 11:11:57;;;;;;;12.23;8.00;;;;;;;11.37;30.15;100458.09;5059093;28;20438;-60
2022/03/12 11:14:23;;;;;;;11.47;7.97;;;;;;;11.03;30.45;100453.88;5071076;28;20208;-61
2022/03/12 11:20:31;;;;;;;11.93;7.60;;;;;;;11.10;31.76;100455.22;5063692;28;20199;-66
2022/03/12 11:23:16;;;;;;;11.90;7.90;;;;;;;11.40;30.30;100450.25;5059944;28;20212;-65
2022/03/12 11:26:04;;;;;;;10.52;8.05;;;;;;;11.69;30.19;100450.44;5072457;28;20414;-65
2022/03/12 11:28:30;;;;;;;9.87;8.23;;;;;;;11.49;30.42;100445.53;5074035;28;20546;-67
2022/03/12 11:30:56;;;;;;;9.50;8.00;;;;;;;11.66;31.35;100448.03;5064219;28;20224;-60
2022/03/12 11:33:25;;;;;;;10.63;8.82;;;;;;;11.84;32.82;100442.78;5062318;28;20428;-61
2022/03/12 11:35:58;;;;;;;12.77;8.93;;;;;;;11.79;32.43;100441.31;5067459;28;20281;-61
2022/03/12 11:38:24;;;;;;;10.77;7.67;;;;;;;11.52;31.86;100435.03;5072894;28;20188;-60
2022/03/12 11:40:53;;;;;;;11.53;7.73;;;;;;;11.49;32.23;100435.22;5064149;28;20390;-62